createdAt,value
2019-01-14T00:00:16.906Z,6.22
2019-01-14T00:02:42.843Z,6.20
2019-01-14T00:05:09.325Z,6.19
2019-01-14T00:07:35.316Z,6.21
2019-01-14T00:10:01.609Z,6.30
2019-01-14T00:12:27.632Z,6.29
2019-01-14T00:14:53.974Z,6.27
2019-01-14T00:17:19.923Z,6.30
2019-01-14T00:19:46.181Z,6.33
2019-01-14T00:22:12.205Z,6.35
2019-01-14T00:24:38.139Z,6.33
2019-01-14T00:27:04.113Z,6.32
2019-01-14T00:29:30.134Z,6.35
2019-01-14T00:31:56.038Z,6.31
2019-01-14T00:34:23.494Z,6.29
2019-01-14T00:36:49.478Z,6.31
2019-01-14T00:39:15.414Z,6.33
2019-01-14T00:41:41.370Z,6.34
2019-01-14T00:44:07.392Z,6.36
2019-01-14T00:46:33.765Z,6.36
2019-01-14T00:49:00.046Z,6.37
2019-01-14T00:51:26.112Z,6.39
2019-01-14T00:53:52.054Z,6.43
2019-01-14T00:56:18.012Z,6.46
2019-01-14T00:58:44.299Z,6.46
2019-01-14T01:01:10.309Z,6.45
2019-01-14T01:03:37.066Z,6.44
2019-01-14T01:06:03.635Z,6.45
2019-01-14T01:08:29.832Z,6.46
2019-01-14T01:10:55.777Z,6.41
2019-01-14T01:13:21.728Z,6.38
2019-01-14T01:15:47.685Z,6.40
2019-01-14T01:18:14.203Z,6.40
2019-01-14T01:20:40.319Z,6.39
2019-01-14T01:23:06.258Z,6.41
2019-01-14T01:25:32.279Z,6.39
2019-01-14T01:27:58.347Z,6.39
2019-01-14T01:30:24.893Z,6.37
2019-01-14T01:32:50.891Z,6.34
2019-01-14T01:35:16.933Z,6.30
2019-01-14T01:37:42.882Z,6.26
2019-01-14T01:40:17.580Z,6.21
2019-01-14T01:42:45.127Z,6.15
2019-01-14T01:45:11.869Z,6.13
2019-01-14T01:47:37.879Z,6.09
2019-01-14T01:50:09.035Z,6.05
2019-01-14T01:52:34.974Z,6.01
2019-01-14T01:55:02.453Z,5.98
2019-01-14T01:57:28.394Z,5.97
2019-01-14T01:59:54.342Z,5.95
2019-01-14T02:02:21.196Z,5.93
2019-01-14T02:04:47.253Z,5.92
2019-01-14T02:07:13.205Z,5.91
2019-01-14T02:09:39.236Z,5.81
2019-01-14T02:12:05.375Z,5.81
2019-01-14T02:14:31.516Z,5.80
2019-01-14T02:16:57.706Z,5.77
2019-01-14T02:19:23.967Z,5.76
2019-01-14T02:21:50.412Z,5.75
2019-01-14T02:24:16.393Z,5.74
2019-01-14T02:26:42.402Z,5.70
2019-01-14T02:29:08.408Z,5.65
2019-01-14T02:31:34.406Z,5.62
2019-01-14T02:34:00.371Z,5.59
2019-01-14T02:36:26.322Z,5.56
2019-01-14T02:38:52.905Z,5.53
2019-01-14T02:41:18.856Z,5.53
2019-01-14T02:43:45.096Z,5.51
2019-01-14T02:46:13.398Z,5.49
2019-01-14T02:48:41.291Z,5.44
2019-01-14T02:51:07.256Z,5.41
2019-01-14T02:53:33.341Z,5.36
2019-01-14T02:55:59.291Z,5.31
2019-01-14T02:58:26.320Z,5.23
2019-01-14T03:00:52.304Z,5.15
2019-01-14T03:03:18.736Z,5.09
2019-01-14T03:05:46.598Z,5.05
2019-01-14T03:08:13.358Z,5.02
2019-01-14T03:10:39.302Z,4.97
2019-01-14T03:13:05.250Z,4.93
2019-01-14T03:15:32.367Z,4.89
2019-01-14T03:17:58.305Z,4.88
2019-01-14T03:20:24.258Z,4.87
2019-01-14T03:22:50.439Z,4.89
2019-01-14T03:25:16.881Z,4.90
2019-01-14T03:27:43.129Z,4.88
2019-01-14T03:30:11.712Z,4.85
2019-01-14T03:32:37.870Z,4.81
2019-01-14T03:35:05.523Z,4.79
2019-01-14T03:37:31.933Z,4.72
2019-01-14T03:39:58.076Z,4.64
2019-01-14T03:42:25.919Z,4.57
2019-01-14T03:44:52.024Z,4.50
2019-01-14T03:47:20.362Z,4.39
2019-01-14T03:49:47.031Z,4.24
2019-01-14T03:52:13.014Z,4.10
2019-01-14T03:54:40.888Z,3.99
2019-01-14T03:57:07.085Z,3.93
2019-01-14T03:59:33.429Z,3.83
2019-01-14T04:01:59.576Z,3.80
2019-01-14T04:04:27.495Z,3.78
2019-01-14T04:06:53.522Z,3.72
2019-01-14T04:09:20.207Z,3.62
2019-01-14T04:11:46.575Z,3.52
2019-01-14T04:14:12.521Z,3.46
2019-01-14T04:16:38.497Z,3.36
2019-01-14T04:19:04.514Z,3.29
2019-01-14T04:21:30.557Z,3.23
2019-01-14T04:23:58.430Z,3.19
2019-01-14T04:26:24.463Z,3.16
2019-01-14T04:28:50.752Z,3.14
2019-01-14T04:31:16.705Z,3.12
2019-01-14T04:33:42.698Z,3.11
2019-01-14T04:36:08.851Z,3.12
2019-01-14T04:38:35.617Z,3.12
2019-01-14T04:41:02.566Z,3.13
2019-01-14T04:43:28.627Z,3.10
2019-01-14T04:45:54.973Z,3.10
2019-01-14T04:48:20.958Z,3.11
2019-01-14T04:50:47.899Z,3.12
2019-01-14T04:53:13.849Z,3.10
2019-01-14T04:55:41.039Z,3.12
2019-01-14T04:58:06.980Z,3.11
2019-01-14T05:00:34.427Z,3.08
2019-01-14T05:03:00.451Z,3.09
2019-01-14T05:05:27.352Z,3.12
2019-01-14T05:07:53.286Z,3.12
2019-01-14T05:10:20.483Z,3.08
2019-01-14T05:12:46.911Z,3.04
2019-01-14T05:15:13.169Z,2.97
2019-01-14T05:17:39.634Z,2.88
2019-01-14T05:20:09.447Z,2.76
2019-01-14T05:22:35.511Z,2.63
2019-01-14T05:25:01.922Z,2.49
2019-01-14T05:27:29.176Z,2.38
2019-01-14T05:29:55.123Z,2.34
2019-01-14T05:32:21.141Z,2.31
2019-01-14T05:34:47.093Z,2.33
2019-01-14T05:37:13.141Z,2.33
2019-01-14T05:39:41.040Z,2.30
2019-01-14T05:42:06.978Z,2.24
2019-01-14T05:44:33.143Z,2.26
2019-01-14T05:46:59.263Z,2.31
2019-01-14T05:49:25.208Z,2.29
2019-01-14T05:51:51.175Z,2.30
2019-01-14T05:54:19.108Z,2.36
2019-01-14T05:56:45.551Z,2.42
2019-01-14T05:59:11.490Z,2.38
2019-01-14T06:01:38.034Z,2.33
2019-01-14T06:04:05.420Z,2.33
2019-01-14T06:06:31.431Z,2.32
2019-01-14T06:08:57.478Z,2.28
2019-01-14T06:11:23.461Z,2.32
2019-01-14T06:13:49.383Z,2.37
2019-01-14T06:16:15.372Z,2.37
2019-01-14T06:18:41.331Z,2.39
2019-01-14T06:21:07.484Z,2.36
2019-01-14T06:23:33.464Z,2.36
2019-01-14T06:25:59.612Z,2.36
2019-01-14T06:28:25.562Z,2.32
2019-01-14T06:30:51.932Z,2.28
2019-01-14T06:33:17.864Z,2.24
2019-01-14T06:35:44.228Z,2.23
2019-01-14T06:38:10.409Z,2.26
2019-01-14T06:40:36.641Z,2.28
2019-01-14T06:43:03.291Z,2.28
2019-01-14T06:45:29.279Z,2.37
2019-01-14T06:47:55.230Z,2.38
2019-01-14T06:50:21.875Z,2.31
2019-01-14T06:52:47.981Z,2.27
2019-01-14T06:55:14.745Z,2.23
2019-01-14T06:57:41.174Z,2.22
2019-01-14T07:00:15.415Z,2.22
2019-01-14T07:02:41.333Z,2.23
2019-01-14T07:05:08.467Z,2.24
2019-01-14T07:07:35.389Z,2.24
2019-01-14T07:10:03.689Z,2.23
2019-01-14T07:12:29.742Z,2.19
2019-01-14T07:14:55.751Z,2.16
2019-01-14T07:17:21.785Z,2.14
2019-01-14T07:19:48.336Z,2.10
2019-01-14T07:22:14.329Z,2.06
2019-01-14T07:24:40.672Z,2.02
2019-01-14T07:27:06.707Z,1.94
2019-01-14T07:29:32.754Z,1.82
2019-01-14T07:31:59.197Z,1.73
2019-01-14T07:34:25.096Z,1.63
2019-01-14T07:36:51.408Z,1.55
2019-01-14T07:39:17.358Z,1.48
2019-01-14T07:41:43.289Z,1.43
2019-01-14T07:44:09.263Z,1.37
2019-01-14T07:46:35.209Z,1.33
2019-01-14T07:49:01.562Z,1.31
2019-01-14T07:51:28.208Z,1.28
2019-01-14T07:53:54.260Z,1.26
2019-01-14T07:56:20.352Z,1.27
2019-01-14T07:58:46.760Z,1.27
2019-01-14T08:01:12.720Z,1.27
2019-01-14T08:03:38.684Z,1.28
2019-01-14T08:06:05.587Z,1.31
2019-01-14T08:08:31.895Z,1.34
2019-01-14T08:10:57.867Z,1.36
2019-01-14T08:13:24.347Z,1.38
2019-01-14T08:15:50.288Z,1.43
2019-01-14T08:18:16.354Z,1.48
2019-01-14T08:20:42.766Z,1.51
2019-01-14T08:23:08.711Z,1.52
2019-01-14T08:25:34.725Z,1.56
2019-01-14T08:28:01.261Z,1.64
2019-01-14T08:30:28.604Z,1.74
2019-01-14T08:32:54.954Z,1.81
2019-01-14T08:35:21.163Z,1.95
2019-01-14T08:37:47.807Z,2.09
2019-01-14T08:40:15.494Z,2.18
2019-01-14T08:42:41.508Z,2.27
2019-01-14T08:45:09.277Z,2.35
2019-01-14T08:47:35.721Z,2.40
2019-01-14T08:50:03.370Z,2.36
2019-01-14T08:52:29.346Z,2.33
2019-01-14T08:54:55.291Z,2.32
2019-01-14T08:57:21.275Z,2.30
2019-01-14T08:59:49.116Z,2.34
2019-01-14T09:02:15.062Z,2.37
2019-01-14T09:04:42.976Z,2.37
2019-01-14T09:07:08.925Z,2.37
2019-01-14T09:09:35.865Z,2.36
2019-01-14T09:12:02.276Z,2.34
2019-01-14T09:14:30.116Z,2.38
2019-01-14T09:16:56.066Z,2.45
2019-01-14T09:19:22.184Z,2.43
2019-01-14T09:21:48.223Z,2.54
2019-01-14T09:24:14.661Z,2.63
2019-01-14T09:26:42.522Z,2.67
2019-01-14T09:29:08.462Z,2.77
2019-01-14T09:31:34.400Z,2.88
2019-01-14T09:34:01.923Z,2.95
2019-01-14T09:36:29.560Z,2.93
2019-01-14T09:38:55.507Z,2.95
2019-01-14T09:41:21.509Z,2.94
2019-01-14T09:43:47.454Z,2.86
2019-01-14T09:46:13.391Z,2.82
2019-01-14T09:48:39.511Z,2.71
2019-01-14T09:51:05.466Z,2.71
2019-01-14T09:53:31.431Z,2.72
2019-01-14T09:55:58.307Z,2.71
2019-01-14T09:58:24.553Z,2.72
2019-01-14T10:00:50.987Z,2.75
2019-01-14T10:03:16.971Z,2.80
2019-01-14T10:05:43.247Z,2.82
2019-01-14T10:08:09.192Z,2.87
2019-01-14T10:10:35.281Z,2.99
2019-01-14T10:13:01.232Z,3.15
2019-01-14T10:15:28.057Z,3.30
2019-01-14T10:17:58.779Z,3.37
2019-01-14T10:20:25.026Z,3.39
2019-01-14T10:22:51.069Z,3.38
2019-01-14T10:25:17.063Z,3.46
2019-01-14T10:27:43.118Z,3.43
2019-01-14T10:30:19.208Z,3.42
2019-01-14T10:32:45.263Z,3.43
2019-01-14T10:35:11.942Z,3.46
2019-01-14T10:37:38.656Z,3.43
2019-01-14T10:40:13.922Z,3.38
2019-01-14T10:42:40.050Z,3.33
2019-01-14T10:45:09.820Z,3.27
2019-01-14T10:47:35.771Z,3.31
2019-01-14T10:50:03.289Z,3.35
2019-01-14T10:52:29.383Z,3.38
2019-01-14T10:54:55.463Z,3.42
2019-01-14T10:57:21.861Z,3.44
2019-01-14T10:59:49.783Z,3.40
2019-01-14T11:02:16.244Z,3.33
2019-01-14T11:04:42.238Z,3.29
2019-01-14T11:07:08.773Z,3.28
2019-01-14T11:09:36.298Z,3.23
2019-01-14T11:12:02.830Z,3.26
2019-01-14T11:14:28.781Z,3.28
2019-01-14T11:16:54.825Z,3.35
2019-01-14T11:19:21.142Z,3.38
2019-01-14T11:21:47.293Z,3.38
2019-01-14T11:24:13.244Z,3.33
2019-01-14T11:26:39.219Z,3.33
2019-01-14T11:29:07.069Z,3.42
2019-01-14T11:31:33.022Z,3.49
2019-01-14T11:33:59.041Z,3.45
2019-01-14T11:36:25.097Z,3.41
2019-01-14T11:38:51.658Z,3.38
2019-01-14T11:41:17.737Z,3.42
2019-01-14T11:43:43.701Z,3.48
2019-01-14T11:46:09.867Z,3.44
2019-01-14T11:48:35.861Z,3.70
2019-01-14T11:51:02.109Z,3.85
2019-01-14T11:53:28.127Z,3.99
2019-01-14T11:55:54.331Z,3.90
2019-01-14T11:58:20.428Z,3.72
2019-01-14T12:00:46.940Z,3.62
2019-01-14T12:03:13.073Z,3.44
2019-01-14T12:05:39.005Z,3.24
2019-01-14T12:08:09.964Z,3.08
2019-01-14T12:10:35.956Z,2.94
2019-01-14T12:13:02.963Z,2.83
2019-01-14T12:15:29.011Z,2.75
2019-01-14T12:17:55.261Z,2.72
2019-01-14T12:20:21.410Z,2.73
2019-01-14T12:22:47.557Z,2.70
2019-01-14T12:25:14.462Z,2.64
2019-01-14T12:27:40.422Z,2.55
2019-01-14T12:30:13.191Z,2.51
2019-01-14T12:32:39.190Z,2.47
2019-01-14T12:35:05.934Z,2.48
2019-01-14T12:37:32.020Z,2.50
2019-01-14T12:39:58.031Z,2.48
2019-01-14T12:42:24.402Z,2.42
2019-01-14T12:44:50.718Z,2.39
2019-01-14T12:47:16.861Z,2.33
2019-01-14T12:49:43.006Z,2.28
2019-01-14T12:52:08.945Z,2.22
2019-01-14T12:54:34.927Z,2.25
2019-01-14T12:57:01.566Z,2.29
2019-01-14T12:59:27.606Z,2.26
2019-01-14T13:01:53.615Z,2.27
2019-01-14T13:04:19.565Z,2.26
2019-01-14T13:06:45.612Z,2.23
2019-01-14T13:09:11.690Z,2.25
2019-01-14T13:11:37.674Z,2.23
2019-01-14T13:14:04.687Z,2.19
2019-01-14T13:16:30.686Z,2.20
2019-01-14T13:18:56.745Z,2.23
2019-01-14T13:21:22.696Z,2.22
2019-01-14T13:23:48.719Z,2.18
2019-01-14T13:26:14.683Z,2.18
2019-01-14T13:28:40.824Z,2.22
2019-01-14T13:31:06.889Z,2.20
2019-01-14T13:33:33.835Z,2.18
2019-01-14T13:35:59.789Z,2.16
2019-01-14T13:38:25.973Z,2.16
2019-01-14T13:40:51.927Z,2.15
2019-01-14T13:43:17.985Z,2.12
2019-01-14T13:45:44.001Z,2.10
2019-01-14T13:48:09.943Z,2.08
2019-01-14T13:50:35.911Z,2.04
2019-01-14T13:53:03.404Z,1.99
2019-01-14T13:55:29.352Z,1.92
2019-01-14T13:57:59.771Z,1.86
2019-01-14T14:00:24.589Z,1.78
2019-01-14T14:02:51.034Z,1.71
2019-01-14T14:05:17.200Z,1.65
2019-01-14T14:07:43.328Z,1.58
2019-01-14T14:10:12.997Z,1.57
2019-01-14T14:12:38.943Z,1.53
2019-01-14T14:15:07.970Z,1.47
2019-01-14T14:17:33.923Z,1.41
2019-01-14T14:19:59.873Z,1.37
2019-01-14T14:22:25.860Z,1.34
2019-01-14T14:24:52.957Z,1.31
2019-01-14T14:27:19.871Z,1.28
2019-01-14T14:29:45.924Z,1.26
2019-01-14T14:32:11.872Z,1.25
2019-01-14T14:34:38.121Z,1.23
2019-01-14T14:37:04.315Z,1.26
2019-01-14T14:39:30.307Z,1.27
2019-01-14T14:41:57.145Z,1.24
2019-01-14T14:44:23.630Z,1.16
2019-01-14T14:46:49.878Z,1.08
2019-01-14T14:49:15.824Z,1.00
2019-01-14T14:51:42.530Z,0.96
2019-01-14T14:54:08.503Z,0.91
2019-01-14T14:56:34.438Z,0.89
2019-01-14T14:59:00.821Z,0.85
2019-01-14T15:01:26.977Z,0.81
2019-01-14T15:03:52.948Z,0.77
2019-01-14T15:06:18.957Z,0.74
2019-01-14T15:08:44.927Z,0.72
2019-01-14T15:11:11.113Z,0.71
2019-01-14T15:13:37.128Z,0.71
2019-01-14T15:16:04.040Z,0.68
2019-01-14T15:18:30.292Z,0.66
2019-01-14T15:20:56.282Z,0.63
2019-01-14T15:23:22.625Z,0.61
2019-01-14T15:25:49.381Z,0.59
2019-01-14T15:28:17.334Z,0.57
2019-01-14T15:30:43.311Z,0.55
2019-01-14T15:33:09.299Z,0.56
2019-01-14T15:35:35.957Z,0.56
2019-01-14T15:38:02.121Z,0.55
2019-01-14T15:40:28.096Z,0.55
2019-01-14T15:42:54.159Z,0.56
2019-01-14T15:45:22.721Z,0.55
2019-01-14T15:47:48.666Z,0.53
2019-01-14T15:50:15.733Z,0.53
2019-01-14T15:52:41.672Z,0.51
2019-01-14T15:55:11.233Z,0.50
2019-01-14T15:57:38.142Z,0.49
2019-01-14T16:00:07.886Z,0.48
2019-01-14T16:02:33.842Z,0.54
2019-01-14T16:05:00.581Z,0.63
2019-01-14T16:07:26.946Z,0.71
2019-01-14T16:09:52.899Z,0.81
2019-01-14T16:12:18.913Z,0.87
2019-01-14T16:14:44.863Z,0.90
2019-01-14T16:17:11.384Z,1.00
2019-01-14T16:19:38.301Z,1.07
2019-01-14T16:22:04.241Z,1.13
2019-01-14T16:24:33.096Z,1.14
2019-01-14T16:27:02.088Z,1.13
2019-01-14T16:29:28.376Z,1.10
2019-01-14T16:31:54.318Z,1.09
2019-01-14T16:34:22.506Z,1.10
2019-01-14T16:36:48.482Z,1.17
2019-01-14T16:39:16.236Z,1.24
2019-01-14T16:41:42.557Z,1.32
2019-01-14T16:44:09.140Z,1.40
2019-01-14T16:46:35.091Z,1.48
2019-01-14T16:49:03.579Z,1.56
2019-01-14T16:51:32.679Z,1.63
2019-01-14T16:53:59.228Z,1.68
2019-01-14T16:56:25.210Z,1.75
2019-01-14T16:58:51.451Z,1.80
2019-01-14T17:01:17.461Z,1.84
2019-01-14T17:03:45.020Z,1.88
2019-01-14T17:06:11.600Z,1.92
2019-01-14T17:08:38.545Z,1.96
2019-01-14T17:11:05.080Z,1.99
2019-01-14T17:13:31.051Z,2.04
2019-01-14T17:15:56.994Z,2.08
2019-01-14T17:18:23.038Z,2.11
2019-01-14T17:20:49.085Z,2.15
2019-01-14T17:23:15.137Z,2.19
2019-01-14T17:25:41.377Z,2.22
2019-01-14T17:28:08.109Z,2.24
2019-01-14T17:30:34.079Z,2.29
2019-01-14T17:33:00.083Z,2.33
2019-01-14T17:35:26.053Z,2.37
2019-01-14T17:37:52.223Z,2.44
2019-01-14T17:40:19.721Z,2.57
2019-01-14T17:42:45.880Z,2.72
2019-01-14T17:45:12.438Z,2.71
2019-01-14T17:47:39.218Z,2.70
2019-01-14T17:50:08.496Z,2.69
2019-01-14T17:52:34.756Z,2.71
2019-01-14T17:55:00.763Z,2.73
2019-01-14T17:57:27.753Z,2.74
2019-01-14T17:59:53.726Z,2.78
2019-01-14T18:02:19.705Z,2.81
2019-01-14T18:04:45.655Z,2.84
2019-01-14T18:07:12.203Z,2.87
2019-01-14T18:09:38.457Z,2.89
2019-01-14T18:12:04.482Z,2.91
2019-01-14T18:14:30.465Z,2.93
2019-01-14T18:16:56.468Z,2.96
2019-01-14T18:19:22.475Z,2.96
2019-01-14T18:21:48.626Z,2.99
2019-01-14T18:24:14.645Z,3.03
2019-01-14T18:26:40.658Z,3.06
2019-01-14T18:29:06.658Z,3.08
2019-01-14T18:31:32.663Z,3.12
2019-01-14T18:33:58.786Z,3.15
2019-01-14T18:36:24.911Z,3.16
2019-01-14T18:38:51.139Z,3.19
2019-01-14T18:41:17.086Z,3.19
2019-01-14T18:43:43.147Z,3.22
2019-01-14T18:46:09.162Z,3.23
2019-01-14T18:48:35.313Z,3.24
2019-01-14T18:51:01.353Z,3.24
2019-01-14T18:53:27.378Z,3.27
2019-01-14T18:55:53.368Z,3.28
2019-01-14T18:58:19.554Z,3.28
2019-01-14T19:00:47.436Z,3.28
2019-01-14T19:03:15.265Z,3.31
2019-01-14T19:05:43.124Z,3.31
2019-01-14T19:08:09.415Z,3.31
2019-01-14T19:10:36.561Z,3.31
2019-01-14T19:13:02.573Z,3.31
2019-01-14T19:15:28.595Z,3.32
2019-01-14T19:17:54.857Z,3.33
2019-01-14T19:20:24.567Z,3.33
2019-01-14T19:22:53.402Z,3.34
2019-01-14T19:25:19.827Z,3.35
2019-01-14T19:27:45.890Z,3.33
2019-01-14T19:30:14.992Z,3.33
2019-01-14T19:32:40.954Z,3.34
2019-01-14T19:35:07.112Z,3.33
2019-01-14T19:37:33.132Z,3.33
2019-01-14T19:39:59.092Z,3.34
2019-01-14T19:42:25.458Z,3.35
2019-01-14T19:44:51.456Z,3.35
2019-01-14T19:47:17.413Z,3.37
2019-01-14T19:49:43.622Z,3.36
2019-01-14T19:52:09.611Z,3.34
2019-01-14T19:54:35.615Z,3.38
2019-01-14T19:57:01.534Z,3.58
2019-01-14T19:59:27.546Z,3.53
2019-01-14T20:01:54.333Z,3.45
2019-01-14T20:04:20.309Z,3.39
2019-01-14T20:06:46.305Z,3.33
2019-01-14T20:09:12.688Z,3.27
2019-01-14T20:11:40.192Z,3.24
2019-01-14T20:14:06.404Z,3.21
2019-01-14T20:16:32.626Z,3.18
2019-01-14T20:18:58.656Z,3.11
2019-01-14T20:21:27.567Z,3.03
2019-01-14T20:23:54.779Z,2.96
2019-01-14T20:26:20.789Z,2.92
2019-01-14T20:28:46.781Z,2.91
2019-01-14T20:31:12.727Z,2.90
2019-01-14T20:33:38.682Z,2.93
2019-01-14T20:36:04.813Z,2.94
2019-01-14T20:38:32.215Z,2.99
2019-01-14T20:40:58.343Z,3.04
2019-01-14T20:43:24.398Z,3.07
2019-01-14T20:45:50.361Z,3.10
2019-01-14T20:48:16.300Z,3.11
2019-01-14T20:50:42.684Z,3.11
2019-01-14T20:53:13.744Z,3.13
2019-01-14T20:55:38.522Z,3.14
2019-01-14T20:58:04.671Z,3.16
2019-01-14T21:00:30.617Z,3.19
2019-01-14T21:02:56.584Z,3.20
2019-01-14T21:05:23.403Z,3.22
2019-01-14T21:07:49.375Z,3.21
2019-01-14T21:10:16.014Z,3.22
2019-01-14T21:12:42.012Z,3.30
2019-01-14T21:15:12.331Z,3.31
2019-01-14T21:21:25.985Z,3.28
2019-01-14T21:27:15.440Z,3.19
2019-01-14T21:33:29.531Z,3.04
2019-01-14T21:35:58.443Z,2.93
2019-01-14T21:38:24.371Z,2.90
2019-01-14T21:40:50.329Z,2.87
2019-01-14T21:43:16.450Z,2.83
2019-01-14T21:45:42.403Z,2.80
2019-01-14T21:48:08.361Z,2.78
2019-01-14T21:50:34.482Z,2.76
2019-01-14T21:53:00.635Z,2.74
2019-01-14T21:59:14.062Z,2.78
2019-01-14T22:01:41.968Z,2.79
2019-01-14T22:04:09.933Z,2.78
2019-01-14T22:06:37.871Z,2.75
2019-01-14T22:09:05.798Z,2.77
2019-01-14T22:11:38.342Z,2.81
2019-01-14T22:13:59.861Z,2.81
2019-01-14T22:16:25.845Z,2.90
2019-01-14T22:18:53.711Z,2.95
2019-01-14T22:21:21.762Z,2.93
2019-01-14T22:23:48.066Z,2.89
2019-01-14T22:26:14.845Z,2.88
2019-01-14T22:28:40.792Z,2.85
2019-01-14T22:31:07.119Z,2.83
2019-01-14T22:33:33.061Z,2.83
2019-01-14T22:35:59.013Z,2.83
2019-01-14T22:38:25.045Z,2.82
2019-01-14T22:40:51.005Z,2.82
2019-01-14T22:43:17.697Z,2.78
2019-01-14T22:45:43.885Z,2.78
2019-01-14T22:48:10.449Z,2.73
2019-01-14T22:50:37.892Z,2.70
2019-01-14T22:53:04.376Z,2.64
2019-01-14T22:55:30.442Z,2.54
2019-01-14T22:57:58.368Z,2.48
2019-01-14T23:00:49.825Z,2.40
2019-01-14T23:03:16.097Z,2.35
2019-01-14T23:05:43.043Z,2.38
2019-01-14T23:08:09.019Z,2.37
2019-01-14T23:10:34.970Z,2.32
2019-01-14T23:13:01.295Z,2.31
2019-01-14T23:15:27.317Z,2.28
2019-01-14T23:17:53.380Z,2.27
2019-01-14T23:20:19.412Z,2.24
2019-01-14T23:22:45.551Z,2.21
2019-01-14T23:25:11.779Z,2.21
2019-01-14T23:27:39.859Z,2.25
2019-01-14T23:30:08.848Z,2.26
2019-01-14T23:32:34.799Z,2.30
2019-01-14T23:35:00.859Z,2.34
2019-01-14T23:37:26.860Z,2.37
2019-01-14T23:39:53.305Z,2.39
2019-01-14T23:42:19.248Z,2.49
2019-01-14T23:44:45.244Z,2.56
2019-01-14T23:47:11.206Z,2.53
2019-01-14T23:49:39.060Z,2.51
2019-01-14T23:52:05.035Z,2.49
2019-01-14T23:54:36.924Z,2.45
2019-01-14T23:56:58.922Z,2.42
2019-01-14T23:59:24.936Z,2.41
